createdAt,value
2017-06-29T00:00:43.616Z,4.80
2017-06-29T00:03:11.557Z,4.67
2017-06-29T00:05:39.496Z,5.30
2017-06-29T00:08:07.438Z,4.87
2017-06-29T00:10:35.388Z,4.97
2017-06-29T00:13:03.313Z,4.60
2017-06-29T00:15:31.241Z,4.20
2017-06-29T00:17:59.168Z,4.10
2017-06-29T00:20:27.076Z,3.83
2017-06-29T00:22:54.996Z,4.40
2017-06-29T00:25:22.963Z,4.47
2017-06-29T00:27:50.938Z,4.53
2017-06-29T00:30:18.852Z,4.30
2017-06-29T00:32:46.772Z,4.27
2017-06-29T00:35:14.705Z,4.33
2017-06-29T00:37:42.627Z,4.63
2017-06-29T00:40:10.588Z,3.83
2017-06-29T00:42:38.518Z,4.00
2017-06-29T00:45:06.432Z,4.10
2017-06-29T00:47:34.355Z,3.87
2017-06-29T00:50:02.287Z,3.40
2017-06-29T00:52:30.208Z,3.97
2017-06-29T00:54:58.175Z,3.80
2017-06-29T00:57:26.101Z,3.20
2017-06-29T00:59:54.042Z,3.53
2017-06-29T01:02:21.970Z,3.90
2017-06-29T01:04:49.888Z,3.60
2017-06-29T01:07:17.834Z,3.40
2017-06-29T01:09:45.757Z,3.23
2017-06-29T01:12:13.692Z,4.17
2017-06-29T01:14:41.600Z,3.27
2017-06-29T01:17:09.539Z,3.53
2017-06-29T01:19:37.594Z,3.20
2017-06-29T01:22:05.512Z,3.13
2017-06-29T01:24:33.445Z,3.27
2017-06-29T01:27:01.360Z,3.23
2017-06-29T01:29:29.274Z,3.10
2017-06-29T01:31:57.195Z,3.00
2017-06-29T01:34:25.122Z,3.17
2017-06-29T01:36:53.064Z,3.10
2017-06-29T01:39:21.027Z,3.20
2017-06-29T01:41:48.961Z,3.33
2017-06-29T01:44:16.907Z,3.00
2017-06-29T01:46:44.832Z,2.80
2017-06-29T01:49:12.766Z,2.73
2017-06-29T01:51:40.695Z,3.03
2017-06-29T01:54:08.635Z,3.30
2017-06-29T02:06:26.609Z,2.37
2017-06-29T02:08:55.085Z,2.60
2017-06-29T02:11:23.017Z,3.37
2017-06-29T02:13:50.957Z,2.87
2017-06-29T02:16:18.912Z,2.60
2017-06-29T02:18:46.824Z,2.60
2017-06-29T02:21:14.750Z,2.70
2017-06-29T02:23:42.691Z,2.90
2017-06-29T02:26:10.609Z,2.77
2017-06-29T02:28:38.829Z,2.40
2017-06-29T02:31:06.748Z,2.80
2017-06-29T02:33:34.662Z,2.40
2017-06-29T02:36:02.600Z,2.50
2017-06-29T02:38:30.519Z,2.80
2017-06-29T02:40:58.430Z,2.33
2017-06-29T02:43:26.350Z,2.33
2017-06-29T02:45:54.296Z,2.70
2017-06-29T02:48:22.222Z,2.60
2017-06-29T02:50:50.149Z,2.47
2017-06-29T02:53:18.101Z,2.70
2017-06-29T02:55:46.014Z,2.40
2017-06-29T02:58:13.926Z,2.60
2017-06-29T03:00:41.856Z,1.90
2017-06-29T03:03:09.814Z,2.47
2017-06-29T03:05:37.733Z,2.40
2017-06-29T03:08:05.666Z,2.03
2017-06-29T03:10:33.618Z,2.33
2017-06-29T03:13:01.539Z,2.43
2017-06-29T03:15:29.477Z,2.30
2017-06-29T03:17:57.414Z,2.20
2017-06-29T03:20:25.365Z,2.30
2017-06-29T03:22:53.321Z,2.37
2017-06-29T03:25:21.257Z,2.30
2017-06-29T03:27:49.177Z,1.90
2017-06-29T03:30:17.104Z,2.20
2017-06-29T03:32:45.035Z,2.37
2017-06-29T03:35:12.991Z,2.37
2017-06-29T03:37:40.893Z,2.00
2017-06-29T03:40:08.829Z,2.50
2017-06-29T03:42:36.740Z,1.90
2017-06-29T03:45:04.670Z,2.33
2017-06-29T03:47:32.602Z,2.27
2017-06-29T03:50:00.553Z,2.00
2017-06-29T03:52:28.709Z,2.00
2017-06-29T03:54:56.629Z,2.00
2017-06-29T03:57:24.569Z,2.40
2017-06-29T03:59:52.483Z,1.83
2017-06-29T04:02:20.401Z,2.20
2017-06-29T04:04:48.325Z,2.00
2017-06-29T04:07:16.253Z,2.23
2017-06-29T04:09:44.193Z,2.13
2017-06-29T04:12:12.116Z,2.00
2017-06-29T04:14:40.020Z,2.10
2017-06-29T04:17:07.954Z,2.27
2017-06-29T04:19:35.897Z,2.03
2017-06-29T04:22:03.822Z,2.10
2017-06-29T04:24:31.767Z,1.90
2017-06-29T04:26:59.707Z,2.00
2017-06-29T04:29:27.631Z,1.83
2017-06-29T04:31:55.582Z,2.07
2017-06-29T04:34:23.506Z,2.10
2017-06-29T04:36:51.421Z,1.93
2017-06-29T04:39:19.368Z,1.83
2017-06-29T04:41:47.292Z,1.83
2017-06-29T04:44:15.241Z,2.13
2017-06-29T04:46:43.215Z,1.90
2017-06-29T04:49:11.146Z,1.97
2017-06-29T04:51:39.073Z,1.83
2017-06-29T04:54:06.989Z,2.00
2017-06-29T04:56:34.902Z,2.30
2017-06-29T04:59:02.858Z,1.63
2017-06-29T05:01:30.781Z,2.10
2017-06-29T05:03:58.721Z,1.90
2017-06-29T05:06:26.680Z,1.77
2017-06-29T05:08:54.599Z,3.43
2017-06-29T05:11:22.594Z,4.40
2017-06-29T05:13:50.534Z,5.17
2017-06-29T05:16:18.572Z,5.33
2017-06-29T05:18:46.579Z,5.60
2017-06-29T05:21:14.636Z,5.80
2017-06-29T05:23:42.705Z,5.17
2017-06-29T05:26:10.625Z,5.17
2017-06-29T05:28:38.542Z,5.20
2017-06-29T05:31:06.470Z,6.07
2017-06-29T05:33:34.406Z,5.90
2017-06-29T05:36:02.657Z,6.23
2017-06-29T05:38:30.630Z,6.03
2017-06-29T05:40:58.755Z,5.17
2017-06-29T05:43:26.665Z,6.97
2017-06-29T05:45:54.598Z,5.80
2017-06-29T05:48:22.810Z,5.97
2017-06-29T05:50:50.741Z,6.23
2017-06-29T05:53:18.709Z,5.37
2017-06-29T05:55:46.674Z,8.43
2017-06-29T05:58:14.588Z,6.50
2017-06-29T06:00:43.249Z,11.73
2017-06-29T06:03:11.179Z,14.13
2017-06-29T06:05:39.098Z,14.57
2017-06-29T06:08:07.047Z,13.33
2017-06-29T06:10:35.235Z,14.03
2017-06-29T06:13:03.504Z,13.60
2017-06-29T06:15:31.424Z,14.27
2017-06-29T06:17:59.600Z,14.83
2017-06-29T06:20:28.405Z,15.67
2017-06-29T06:22:56.345Z,15.20
2017-06-29T06:25:24.249Z,15.70
2017-06-29T06:27:52.168Z,15.50
2017-06-29T06:30:20.078Z,15.77
2017-06-29T06:32:47.993Z,16.17
2017-06-29T06:35:15.929Z,17.60
2017-06-29T06:37:44.053Z,13.70
2017-06-29T06:40:11.998Z,13.20
2017-06-29T06:42:39.920Z,10.37
2017-06-29T06:45:07.840Z,11.23
2017-06-29T06:47:35.859Z,9.73
2017-06-29T06:50:03.770Z,8.87
2017-06-29T06:52:31.694Z,8.03
2017-06-29T06:54:59.613Z,6.80
2017-06-29T06:57:27.530Z,6.63
2017-06-29T06:59:55.474Z,6.40
2017-06-29T07:02:23.424Z,5.83
2017-06-29T07:04:51.356Z,5.43
2017-06-29T07:07:19.337Z,5.13
2017-06-29T07:09:47.273Z,4.93
2017-06-29T07:12:15.197Z,4.87
2017-06-29T07:14:43.124Z,4.33
2017-06-29T07:17:11.078Z,4.60
2017-06-29T07:19:39.017Z,4.20
2017-06-29T07:22:06.969Z,4.37
2017-06-29T07:24:34.885Z,4.60
2017-06-29T07:27:02.811Z,3.90
2017-06-29T07:29:30.745Z,3.80
2017-06-29T07:31:58.678Z,3.67
2017-06-29T07:47:26.410Z,4.40
2017-06-29T07:49:54.335Z,4.20
2017-06-29T07:52:22.247Z,5.07
2017-06-29T07:54:50.161Z,4.00
2017-06-29T07:57:18.097Z,4.80
2017-06-29T07:59:46.013Z,4.13
2017-06-29T08:02:13.945Z,4.37
2017-06-29T08:04:41.909Z,4.07
2017-06-29T08:07:09.829Z,4.20
2017-06-29T08:09:37.777Z,4.03
2017-06-29T08:12:05.720Z,4.07
2017-06-29T08:14:33.655Z,4.10
2017-06-29T08:17:01.594Z,4.17
2017-06-29T08:19:29.516Z,4.40
2017-06-29T08:21:57.433Z,3.97
2017-06-29T08:24:25.359Z,4.43
2017-06-29T08:26:53.289Z,4.43
2017-06-29T08:29:21.252Z,4.50
2017-06-29T08:31:49.229Z,4.00
2017-06-29T08:34:17.166Z,4.43
2017-06-29T08:36:45.285Z,4.40
2017-06-29T08:39:13.225Z,3.80
2017-06-29T08:41:41.189Z,4.00
2017-06-29T08:44:09.117Z,4.33
2017-06-29T08:46:37.038Z,3.80
2017-06-29T08:49:05.082Z,4.33
2017-06-29T08:51:33.008Z,4.10
2017-06-29T08:54:00.931Z,4.27
2017-06-29T08:56:28.863Z,4.90
2017-06-29T08:58:56.792Z,4.47
2017-06-29T09:01:24.741Z,5.27
2017-06-29T09:03:52.679Z,5.27
2017-06-29T09:06:20.629Z,5.50
2017-06-29T09:08:48.563Z,5.60
2017-06-29T09:11:16.487Z,5.63
2017-06-29T09:13:44.388Z,5.73
2017-06-29T09:16:12.317Z,5.17
2017-06-29T09:18:40.239Z,5.80
2017-06-29T09:21:08.162Z,5.60
2017-06-29T09:23:36.115Z,6.10
2017-06-29T09:26:04.033Z,9.00
2017-06-29T09:28:31.948Z,8.93
2017-06-29T09:30:59.893Z,10.73
2017-06-29T09:33:27.811Z,14.50
2017-06-29T09:35:55.758Z,17.90
2017-06-29T09:38:23.679Z,17.60
2017-06-29T09:40:51.621Z,17.67
2017-06-29T09:43:19.542Z,19.80
2017-06-29T09:45:47.480Z,22.00
2017-06-29T09:48:15.409Z,16.43
2017-06-29T09:50:43.325Z,15.70
2017-06-29T09:53:11.245Z,14.77
2017-06-29T09:55:39.188Z,14.80
2017-06-29T09:58:07.110Z,13.83
2017-06-29T10:00:35.065Z,14.13
2017-06-29T10:03:03.011Z,14.17
2017-06-29T10:05:30.941Z,12.63
2017-06-29T10:07:58.885Z,12.10
2017-06-29T10:10:26.820Z,11.60
2017-06-29T10:12:54.754Z,11.00
2017-06-29T10:15:22.738Z,11.80
2017-06-29T10:17:50.681Z,11.83
2017-06-29T10:20:18.597Z,11.20
2017-06-29T10:22:46.511Z,11.03
2017-06-29T10:25:14.461Z,11.23
2017-06-29T10:27:42.382Z,10.07
2017-06-29T10:30:10.306Z,10.60
2017-06-29T10:32:38.245Z,10.00
2017-06-29T10:35:06.168Z,10.27
2017-06-29T10:37:34.129Z,10.13
2017-06-29T10:40:02.082Z,9.20
2017-06-29T10:42:30.044Z,9.83
2017-06-29T10:44:57.973Z,9.87
2017-06-29T10:47:25.886Z,9.97
2017-06-29T10:49:53.821Z,9.73
2017-06-29T10:52:21.745Z,9.10
2017-06-29T10:54:49.673Z,9.23
2017-06-29T10:57:17.614Z,9.50
2017-06-29T10:59:45.564Z,9.23
2017-06-29T11:02:13.491Z,8.70
2017-06-29T11:04:41.405Z,8.80
2017-06-29T11:07:09.316Z,9.87
2017-06-29T11:09:37.448Z,9.67
2017-06-29T11:12:05.392Z,9.20
2017-06-29T11:14:33.352Z,9.20
2017-06-29T11:17:01.408Z,9.13
2017-06-29T11:19:29.329Z,8.50
2017-06-29T11:21:57.261Z,8.67
2017-06-29T11:24:25.193Z,8.60
2017-06-29T11:26:53.114Z,8.53
2017-06-29T11:29:21.059Z,8.20
2017-06-29T11:31:49.006Z,7.90
2017-06-29T11:34:16.969Z,7.00
2017-06-29T11:36:44.877Z,8.50
2017-06-29T11:39:12.789Z,8.40
2017-06-29T11:41:40.725Z,8.30
2017-06-29T11:44:08.633Z,7.70
2017-06-29T11:46:36.574Z,7.67
2017-06-29T11:49:04.495Z,7.00
2017-06-29T11:51:32.413Z,8.17
2017-06-29T11:54:00.352Z,8.33
2017-06-29T11:56:28.289Z,7.70
2017-06-29T11:58:56.236Z,7.70
2017-06-29T12:01:24.158Z,7.10
2017-06-29T12:03:52.105Z,7.40
2017-06-29T12:06:20.028Z,6.93
2017-06-29T12:08:47.964Z,7.30
2017-06-29T12:11:15.891Z,7.30
2017-06-29T12:13:43.809Z,7.30
2017-06-29T12:16:11.742Z,7.10
2017-06-29T12:18:39.669Z,7.57
2017-06-29T12:21:07.584Z,6.97
2017-06-29T12:23:35.534Z,7.37
2017-06-29T12:26:03.440Z,6.80
2017-06-29T12:28:31.352Z,6.70
2017-06-29T12:30:59.292Z,7.00
2017-06-29T12:33:27.205Z,7.37
2017-06-29T12:35:55.118Z,7.23
2017-06-29T12:38:23.057Z,6.57
2017-06-29T12:40:51.032Z,6.93
2017-06-29T12:43:18.942Z,7.00
2017-06-29T12:45:46.858Z,7.20
2017-06-29T12:48:14.781Z,5.93
2017-06-29T12:50:42.761Z,6.27
2017-06-29T12:53:10.677Z,5.93
2017-06-29T12:55:38.628Z,6.57
2017-06-29T12:58:06.550Z,6.33
2017-06-29T13:00:34.490Z,6.37
2017-06-29T13:03:02.437Z,6.33
2017-06-29T13:05:31.329Z,6.40
2017-06-29T13:07:59.286Z,5.90
2017-06-29T13:10:27.254Z,5.93
2017-06-29T13:13:02.264Z,6.03
2017-06-29T13:15:30.229Z,6.07
2017-06-29T13:17:58.146Z,6.30
2017-06-29T13:20:26.070Z,6.20
2017-06-29T13:22:54.022Z,6.10
2017-06-29T13:25:21.993Z,6.40
2017-06-29T13:27:49.955Z,6.40
2017-06-29T13:30:17.937Z,5.80
2017-06-29T13:32:45.856Z,5.57
2017-06-29T13:35:13.772Z,6.43
2017-06-29T13:37:41.723Z,5.47
2017-06-29T13:40:09.654Z,6.47
2017-06-29T13:42:37.591Z,6.27
2017-06-29T13:45:05.525Z,5.70
2017-06-29T13:47:33.458Z,4.73
2017-06-29T13:50:01.372Z,4.97
2017-06-29T13:52:29.295Z,4.70
2017-06-29T13:54:57.358Z,4.77
2017-06-29T14:00:05.341Z,4.23
2017-06-29T14:02:33.330Z,4.70
2017-06-29T14:05:01.689Z,4.73
2017-06-29T14:07:29.611Z,3.90
2017-06-29T14:09:57.565Z,4.47
2017-06-29T14:12:25.502Z,4.10
2017-06-29T14:14:53.471Z,4.07
2017-06-29T14:17:21.418Z,4.37
2017-06-29T14:19:49.381Z,3.93
2017-06-29T14:22:17.353Z,4.13
2017-06-29T14:24:45.303Z,4.77
2017-06-29T14:27:13.257Z,4.40
2017-06-29T14:29:41.221Z,4.03
2017-06-29T14:32:09.167Z,3.97
2017-06-29T14:34:37.124Z,4.23
2017-06-29T14:39:57.625Z,3.83
2017-06-29T14:42:25.572Z,3.73
2017-06-29T14:44:53.516Z,4.00
2017-06-29T14:47:21.450Z,4.13
2017-06-29T14:49:49.385Z,4.37
2017-06-29T14:52:17.333Z,4.60
2017-06-29T14:54:45.270Z,3.33
2017-06-29T14:57:13.334Z,3.90
2017-06-29T14:59:41.314Z,4.00
2017-06-29T15:02:09.360Z,3.63
2017-06-29T15:04:37.321Z,4.30
2017-06-29T15:07:05.249Z,3.73
2017-06-29T15:09:33.201Z,3.80
2017-06-29T15:12:01.889Z,4.13
2017-06-29T15:14:29.830Z,3.90
2017-06-29T15:16:57.756Z,3.67
2017-06-29T15:19:25.693Z,3.90
2017-06-29T15:21:53.639Z,3.73
2017-06-29T15:24:21.603Z,3.13
2017-06-29T15:26:49.520Z,3.43
2017-06-29T15:29:17.444Z,4.73
2017-06-29T15:31:45.366Z,4.90
2017-06-29T15:34:13.301Z,4.50
2017-06-29T15:36:41.271Z,4.80
2017-06-29T15:39:09.209Z,4.20
2017-06-29T15:41:37.129Z,4.20
2017-06-29T15:44:05.060Z,4.73
2017-06-29T15:46:32.985Z,4.50
2017-06-29T15:49:00.937Z,4.50
2017-06-29T15:51:28.881Z,3.93
2017-06-29T15:53:56.813Z,3.60
2017-06-29T15:56:24.750Z,3.60
2017-06-29T15:58:52.678Z,3.80
2017-06-29T16:01:20.757Z,3.80
2017-06-29T16:03:48.685Z,3.83
2017-06-29T16:06:16.606Z,3.70
2017-06-29T16:08:44.538Z,3.47
2017-06-29T16:11:12.504Z,3.60
2017-06-29T16:13:40.433Z,3.93
2017-06-29T16:16:08.340Z,3.80
2017-06-29T16:18:36.287Z,3.63
2017-06-29T16:21:04.246Z,3.33
2017-06-29T16:23:32.205Z,3.80
2017-06-29T16:26:00.143Z,4.03
2017-06-29T16:28:28.078Z,3.80
2017-06-29T16:30:56.002Z,3.33
2017-06-29T16:33:23.979Z,3.90
2017-06-29T16:35:51.899Z,3.67
2017-06-29T16:38:19.853Z,2.90
2017-06-29T16:40:47.772Z,3.13
2017-06-29T16:43:15.714Z,3.70
2017-06-29T16:45:43.662Z,2.87
2017-06-29T16:48:11.610Z,3.60
2017-06-29T16:50:39.581Z,3.60
2017-06-29T16:53:07.525Z,3.60
2017-06-29T16:55:35.453Z,3.90
2017-06-29T16:58:03.412Z,3.30
2017-06-29T17:00:31.342Z,2.63
2017-06-29T17:02:59.302Z,3.10
2017-06-29T17:05:27.258Z,2.53
2017-06-29T17:07:55.189Z,2.93
2017-06-29T17:10:23.171Z,2.70
2017-06-29T17:12:51.101Z,3.57
2017-06-29T17:15:19.041Z,3.00
2017-06-29T17:17:46.965Z,2.70
2017-06-29T17:20:14.897Z,3.33
2017-06-29T17:22:43.261Z,2.90
2017-06-29T17:25:11.189Z,2.77
2017-06-29T17:27:39.166Z,2.80
2017-06-29T17:30:07.091Z,2.60
2017-06-29T17:32:35.018Z,2.90
2017-06-29T17:35:02.941Z,2.77
2017-06-29T17:37:30.890Z,2.53
2017-06-29T17:39:58.821Z,3.13
2017-06-29T17:42:26.748Z,3.87
2017-06-29T17:44:54.704Z,3.70
2017-06-29T17:47:22.628Z,2.97
2017-06-29T17:49:50.617Z,2.87
2017-06-29T17:52:18.565Z,2.70
2017-06-29T17:54:46.501Z,3.17
2017-06-29T17:57:14.442Z,3.00
2017-06-29T17:59:42.396Z,3.27
2017-06-29T18:02:10.337Z,3.40
2017-06-29T18:04:38.262Z,3.10
2017-06-29T18:07:06.184Z,3.27
2017-06-29T18:09:34.124Z,3.10
2017-06-29T18:12:02.096Z,3.40
2017-06-29T18:14:30.092Z,2.97
2017-06-29T18:16:58.034Z,2.97
2017-06-29T18:19:25.973Z,2.90
2017-06-29T18:21:53.898Z,3.00
2017-06-29T18:24:21.857Z,3.00
2017-06-29T18:26:49.837Z,3.10
2017-06-29T18:29:17.776Z,3.40
2017-06-29T18:31:45.735Z,3.43
2017-06-29T18:34:13.641Z,2.90
2017-06-29T18:36:41.577Z,2.70
2017-06-29T18:39:09.531Z,3.00
2017-06-29T18:41:37.472Z,2.90
2017-06-29T18:44:05.480Z,3.07
2017-06-29T18:46:33.409Z,2.50
2017-06-29T18:49:01.321Z,2.97
2017-06-29T18:51:29.270Z,2.70
2017-06-29T18:53:57.209Z,2.57
2017-06-29T18:56:25.153Z,2.53
2017-06-29T18:58:53.134Z,2.63
2017-06-29T19:01:21.090Z,2.13
2017-06-29T19:03:49.093Z,2.43
2017-06-29T19:06:17.029Z,2.20
2017-06-29T19:08:44.960Z,2.83
2017-06-29T19:11:12.908Z,2.47
2017-06-29T19:13:40.846Z,2.03
2017-06-29T19:16:08.839Z,2.60
2017-06-29T19:18:36.791Z,2.30
2017-06-29T19:21:04.717Z,2.30
2017-06-29T19:23:32.651Z,2.37
2017-06-29T19:26:00.589Z,3.00
2017-06-29T19:28:29.056Z,2.70
2017-06-29T19:30:56.977Z,2.40
2017-06-29T19:33:24.928Z,2.20
2017-06-29T19:35:52.861Z,2.10
2017-06-29T19:38:20.781Z,1.90
2017-06-29T19:40:48.741Z,2.40
2017-06-29T19:43:16.670Z,2.57
2017-06-29T19:45:44.625Z,2.37
2017-06-29T19:48:12.566Z,2.40
2017-06-29T19:50:40.485Z,2.50
2017-06-29T19:53:08.448Z,2.60
2017-06-29T19:55:36.375Z,2.47
2017-06-29T19:58:04.286Z,2.40
2017-06-29T20:00:32.214Z,2.67
2017-06-29T20:03:00.147Z,2.67
2017-06-29T20:05:28.098Z,2.13
2017-06-29T20:07:56.025Z,2.80
2017-06-29T20:10:23.984Z,2.40
2017-06-29T20:12:52.054Z,2.20
2017-06-29T20:15:20.121Z,1.97
2017-06-29T20:17:48.058Z,2.07
2017-06-29T20:20:15.993Z,2.00
2017-06-29T20:22:43.959Z,2.17
2017-06-29T20:25:11.894Z,2.53
2017-06-29T20:27:39.866Z,2.00
2017-06-29T20:30:07.842Z,1.70
2017-06-29T20:32:35.789Z,2.20
2017-06-29T20:35:03.717Z,2.20
2017-06-29T20:37:31.645Z,2.13
2017-06-29T20:39:59.576Z,1.90
2017-06-29T20:42:27.532Z,1.90
2017-06-29T20:44:55.484Z,2.00
2017-06-29T20:47:23.777Z,1.90
2017-06-29T20:49:51.729Z,2.10
2017-06-29T20:52:19.666Z,1.93
2017-06-29T20:54:47.629Z,1.93
2017-06-29T20:57:15.552Z,1.83
2017-06-29T20:59:43.529Z,2.20
2017-06-29T21:02:11.472Z,1.80
2017-06-29T21:04:39.397Z,2.37
2017-06-29T21:07:07.342Z,1.83
2017-06-29T21:09:35.282Z,2.00
2017-06-29T21:12:03.238Z,2.07
2017-06-29T21:14:31.166Z,2.30
2017-06-29T21:16:59.117Z,2.10
2017-06-29T21:19:27.075Z,1.97
2017-06-29T21:21:55.014Z,1.90
2017-06-29T21:24:22.969Z,1.90
2017-06-29T21:26:51.021Z,1.93
2017-06-29T21:29:18.948Z,1.87
2017-06-29T21:31:46.885Z,1.90
2017-06-29T21:34:14.869Z,1.90
2017-06-29T21:36:42.801Z,2.47
2017-06-29T21:39:10.749Z,1.80
2017-06-29T21:41:38.693Z,2.13
2017-06-29T21:44:06.670Z,1.90
2017-06-29T21:46:34.611Z,1.63
2017-06-29T21:49:02.545Z,1.70
2017-06-29T21:51:30.497Z,2.30
2017-06-29T21:53:58.417Z,1.60
2017-06-29T21:56:26.351Z,1.90
2017-06-29T21:58:54.288Z,1.80
2017-06-29T22:01:22.214Z,2.10
2017-06-29T22:03:50.326Z,1.60
2017-06-29T22:06:18.273Z,1.70
2017-06-29T22:08:46.189Z,2.10
2017-06-29T22:11:14.161Z,2.00
2017-06-29T22:13:42.068Z,1.60
2017-06-29T22:16:09.999Z,1.97
2017-06-29T22:18:37.931Z,2.03
2017-06-29T22:21:05.842Z,1.67
2017-06-29T22:23:33.765Z,1.90
2017-06-29T22:26:01.689Z,1.80
2017-06-29T22:28:29.613Z,2.03
2017-06-29T22:30:57.531Z,1.70
2017-06-29T22:33:25.477Z,1.80
2017-06-29T22:35:53.401Z,1.60
2017-06-29T22:38:21.317Z,1.60
2017-06-29T22:40:49.224Z,1.93
2017-06-29T22:43:17.140Z,1.70
2017-06-29T22:45:45.095Z,1.67
2017-06-29T22:48:13.054Z,1.90
2017-06-29T22:50:40.981Z,1.77
2017-06-29T22:53:08.904Z,1.83
2017-06-29T22:55:36.838Z,2.00
2017-06-29T22:58:04.756Z,1.90
2017-06-29T23:00:32.700Z,1.97
2017-06-29T23:03:00.670Z,1.97
2017-06-29T23:05:28.586Z,2.23
2017-06-29T23:07:56.493Z,1.97
2017-06-29T23:10:24.408Z,1.73
2017-06-29T23:12:52.334Z,1.80
2017-06-29T23:15:20.275Z,1.80
2017-06-29T23:17:48.193Z,1.50
2017-06-29T23:20:16.119Z,1.77
2017-06-29T23:22:44.024Z,2.10
2017-06-29T23:25:11.965Z,2.07
2017-06-29T23:27:39.890Z,1.80
2017-06-29T23:30:07.804Z,1.90
2017-06-29T23:32:35.718Z,1.83
2017-06-29T23:35:03.633Z,1.80
2017-06-29T23:37:31.536Z,1.60
2017-06-29T23:39:59.460Z,1.80
2017-06-29T23:42:27.400Z,1.53
2017-06-29T23:44:55.307Z,1.60
2017-06-29T23:47:23.209Z,1.93
2017-06-29T23:49:51.151Z,1.70
2017-06-29T23:52:19.321Z,1.77
2017-06-29T23:54:47.241Z,2.00
2017-06-29T23:57:15.164Z,1.50
2017-06-29T23:59:43.079Z,2.03
